createdAt,value
2023-02-23T00:01:16.053Z,98.87
2023-02-23T00:06:19.297Z,99.30
2023-02-23T00:11:21.306Z,98.46
2023-02-23T00:16:24.033Z,98.86
2023-02-23T00:21:29.853Z,98.53
2023-02-23T00:26:33.827Z,99.55
2023-02-23T00:31:35.597Z,99.69
2023-02-23T00:36:38.873Z,100.00
2023-02-23T00:41:40.593Z,100.00
2023-02-23T00:46:43.233Z,100.00
2023-02-23T00:51:46.914Z,100.00
2023-02-23T00:56:48.644Z,100.00
2023-02-23T01:01:51.153Z,100.00
2023-02-23T01:06:57.339Z,100.00
2023-02-23T01:12:02.316Z,100.00
2023-02-23T01:17:04.084Z,100.00
2023-02-23T01:22:07.068Z,100.00
2023-02-23T01:27:08.733Z,100.00
2023-02-23T01:32:10.484Z,100.00
2023-02-23T01:37:13.579Z,100.00
2023-02-23T01:42:15.290Z,99.59
2023-02-23T01:47:20.302Z,98.73
2023-02-23T01:52:23.366Z,97.88
2023-02-23T01:57:25.269Z,97.56
2023-02-23T02:02:33.717Z,97.97
2023-02-23T02:07:36.970Z,99.10
2023-02-23T02:12:39.153Z,98.75
2023-02-23T02:17:42.427Z,99.50
2023-02-23T02:22:59.038Z,100.00
2023-02-23T02:28:24.253Z,100.00
2023-02-23T02:33:50.820Z,98.23
2023-02-23T02:38:55.986Z,97.71
2023-02-23T02:43:58.775Z,96.78
2023-02-23T02:49:02.532Z,96.45
2023-02-23T02:54:10.544Z,96.63
2023-02-23T02:59:32.091Z,97.10
2023-02-23T03:04:52.735Z,99.07
2023-02-23T03:10:16.851Z,99.98
2023-02-23T03:15:47.743Z,100.00
2023-02-23T03:21:10.043Z,100.00
2023-02-23T03:26:33.238Z,100.00
2023-02-23T03:31:57.217Z,100.00
2023-02-23T03:37:20.048Z,100.00
2023-02-23T03:42:45.368Z,100.00
2023-02-23T03:48:05.639Z,100.00
2023-02-23T03:53:25.968Z,100.00
2023-02-23T03:58:49.945Z,100.00
2023-02-23T04:04:10.148Z,100.00
2023-02-23T04:09:30.582Z,100.00
2023-02-23T04:14:36.338Z,100.00
2023-02-23T04:19:38.069Z,100.00
2023-02-23T04:24:39.998Z,100.00
2023-02-23T04:29:43.467Z,100.00
2023-02-23T04:34:45.222Z,100.00
2023-02-23T04:39:49.842Z,100.00
2023-02-23T04:44:52.825Z,100.00
2023-02-23T04:49:54.451Z,100.00
2023-02-23T04:54:56.074Z,100.00
2023-02-23T04:59:59.099Z,100.00
2023-02-23T05:05:00.814Z,100.00
2023-02-23T05:10:02.637Z,100.00
2023-02-23T05:15:07.174Z,100.00
2023-02-23T05:20:10.206Z,100.00
2023-02-23T05:25:11.865Z,100.00
2023-02-23T05:30:15.451Z,100.00
2023-02-23T05:35:17.164Z,100.00
2023-02-23T05:40:19.069Z,100.00
2023-02-23T05:45:22.141Z,100.00
2023-02-23T05:50:23.805Z,100.00
2023-02-23T05:55:25.670Z,100.00
2023-02-23T06:00:28.685Z,100.00
2023-02-23T06:05:30.577Z,100.00
2023-02-23T06:10:32.247Z,100.00
2023-02-23T06:15:35.280Z,100.00
2023-02-23T06:20:39.462Z,100.00
2023-02-23T06:25:42.207Z,100.00
2023-02-23T06:30:46.636Z,100.00
2023-02-23T06:35:48.301Z,100.00
2023-02-23T06:40:49.965Z,100.00
2023-02-23T06:45:53.043Z,100.00
2023-02-23T06:50:54.808Z,100.00
2023-02-23T06:55:56.620Z,100.00
2023-02-23T07:00:59.648Z,100.00
2023-02-23T07:06:01.327Z,100.00
2023-02-23T07:11:07.171Z,100.00
2023-02-23T07:16:10.988Z,100.00
2023-02-23T07:21:12.646Z,100.00
2023-02-23T07:26:15.807Z,99.82
2023-02-23T07:31:19.690Z,99.96
2023-02-23T07:36:21.719Z,99.84
2023-02-23T07:41:23.426Z,99.54
2023-02-23T07:46:26.781Z,99.44
2023-02-23T07:51:28.463Z,99.20
2023-02-23T07:56:30.192Z,98.69
2023-02-23T08:01:33.260Z,98.33
2023-02-23T08:06:34.948Z,98.85
2023-02-23T08:11:36.670Z,99.15
2023-02-23T08:16:39.732Z,99.39
2023-02-23T08:21:43.240Z,98.76
2023-02-23T08:26:44.894Z,98.64
2023-02-23T08:31:48.078Z,98.10
2023-02-23T08:36:50.760Z,98.88
2023-02-23T08:41:55.513Z,98.87
2023-02-23T08:46:58.757Z,99.01
2023-02-23T08:52:00.466Z,99.64
2023-02-23T08:57:02.138Z,99.96
2023-02-23T09:02:05.412Z,99.20
2023-02-23T09:07:07.264Z,99.25
2023-02-23T09:12:08.975Z,99.41
2023-02-23T09:17:12.800Z,98.93
2023-02-23T09:22:14.445Z,99.09
2023-02-23T09:27:16.180Z,99.22
2023-02-23T09:32:19.247Z,100.00
2023-02-23T09:37:21.009Z,99.76
2023-02-23T09:42:28.441Z,100.00
2023-02-23T09:47:40.394Z,100.00
2023-02-23T09:52:44.818Z,99.84
2023-02-23T09:57:47.687Z,99.53
2023-02-23T10:03:10.454Z,99.35
2023-02-23T10:08:19.116Z,99.41
2023-02-23T10:13:24.328Z,99.18
2023-02-23T10:18:45.781Z,99.13
2023-02-23T10:23:49.549Z,98.78
2023-02-23T10:28:51.313Z,98.85
2023-02-23T10:33:55.288Z,98.72
2023-02-23T10:38:56.956Z,99.04
2023-02-23T10:44:07.909Z,99.28
2023-02-23T10:49:24.661Z,98.98
2023-02-23T10:54:45.578Z,99.10
2023-02-23T11:00:27.600Z,99.14
2023-02-23T11:05:36.859Z,98.75
2023-02-23T11:10:38.885Z,98.91
2023-02-23T11:15:50.621Z,99.17
2023-02-23T11:20:54.616Z,99.58
2023-02-23T11:26:00.037Z,98.98
2023-02-23T11:31:03.364Z,100.00
2023-02-23T11:36:18.028Z,99.65
2023-02-23T11:41:21.841Z,99.06
2023-02-23T11:46:24.052Z,99.58
2023-02-23T11:51:28.990Z,99.25
2023-02-23T11:56:31.857Z,99.60
2023-02-23T12:01:45.193Z,98.90
2023-02-23T12:06:48.255Z,99.42
2023-02-23T12:11:53.034Z,98.81
2023-02-23T12:16:56.607Z,97.88
2023-02-23T12:22:02.445Z,97.20
2023-02-23T12:27:06.322Z,96.97
2023-02-23T12:32:10.407Z,97.03
2023-02-23T12:37:20.016Z,98.09
2023-02-23T12:42:23.851Z,98.49
2023-02-23T12:47:29.502Z,98.85
2023-02-23T12:52:33.612Z,100.00
2023-02-23T12:57:38.682Z,100.00
2023-02-23T13:02:41.296Z,100.00
2023-02-23T13:07:48.304Z,100.00
2023-02-23T13:12:54.947Z,99.83
2023-02-23T13:17:59.449Z,100.00
2023-02-23T13:23:09.444Z,100.00
2023-02-23T13:28:15.792Z,100.00
2023-02-23T13:33:32.192Z,99.94
2023-02-23T13:38:47.773Z,99.30
2023-02-23T13:43:52.195Z,99.94
2023-02-23T13:48:59.267Z,99.39
2023-02-23T13:54:06.613Z,100.00
2023-02-23T13:59:10.191Z,99.88
2023-02-23T14:04:14.076Z,99.68
2023-02-23T14:09:21.945Z,99.50
2023-02-23T14:14:42.293Z,99.07
2023-02-23T14:19:44.912Z,97.82
2023-02-23T14:24:47.925Z,98.36
2023-02-23T14:30:17.142Z,97.49
2023-02-23T14:35:44.242Z,98.23
2023-02-23T14:40:48.815Z,99.79
2023-02-23T14:45:51.108Z,100.00
2023-02-23T14:51:27.532Z,99.94
2023-02-23T14:56:43.542Z,100.00
2023-02-23T15:01:45.733Z,100.00
2023-02-23T15:06:47.445Z,100.00
2023-02-23T15:11:53.909Z,100.00
2023-02-23T15:16:55.954Z,100.00
2023-02-23T15:21:58.793Z,100.00
2023-02-23T15:27:01.972Z,100.00
2023-02-23T15:32:17.117Z,100.00
2023-02-23T15:37:23.770Z,100.00
2023-02-23T15:42:31.066Z,100.00
2023-02-23T15:47:33.843Z,100.00
2023-02-23T15:52:36.704Z,100.00
2023-02-23T15:57:47.133Z,100.00
2023-02-23T16:02:48.982Z,100.00
2023-02-23T16:08:01.616Z,100.00
2023-02-23T16:13:04.981Z,100.00
2023-02-23T16:18:10.468Z,100.00
2023-02-23T16:23:17.720Z,100.00
2023-02-23T16:28:23.079Z,100.00
2023-02-23T16:33:25.530Z,100.00
2023-02-23T16:38:28.277Z,100.00
2023-02-23T16:43:35.154Z,100.00
2023-02-23T16:48:36.960Z,100.00
2023-02-23T16:53:40.555Z,100.00
2023-02-23T16:58:45.785Z,100.00
2023-02-23T17:03:52.856Z,100.00
2023-02-23T17:08:58.268Z,100.00
2023-02-23T17:14:01.642Z,100.00
2023-02-23T17:19:03.370Z,100.00
2023-02-23T17:24:05.566Z,100.00
2023-02-23T17:29:08.624Z,100.00
2023-02-23T17:34:10.308Z,100.00
2023-02-23T17:39:14.161Z,100.00
2023-02-23T17:44:17.233Z,100.00
2023-02-23T17:49:19.052Z,100.00
2023-02-23T17:54:20.806Z,100.00
2023-02-23T17:59:23.928Z,100.00
2023-02-23T18:04:25.849Z,100.00
2023-02-23T18:09:28.098Z,100.00
2023-02-23T18:14:31.180Z,100.00
2023-02-23T18:19:32.902Z,100.00
2023-02-23T18:24:34.606Z,100.00
2023-02-23T18:29:37.690Z,100.00
2023-02-23T18:34:39.363Z,100.00
2023-02-23T18:39:41.092Z,100.00
2023-02-23T18:44:44.655Z,100.00
2023-02-23T18:49:46.377Z,100.00
2023-02-23T18:54:48.165Z,100.00
2023-02-23T18:59:51.270Z,100.00
2023-02-23T19:04:53.202Z,100.00
2023-02-23T19:09:55.077Z,100.00
2023-02-23T19:14:58.440Z,100.00
2023-02-23T19:20:00.661Z,100.00
2023-02-23T19:25:02.515Z,100.00
2023-02-23T19:30:09.837Z,100.00
2023-02-23T19:35:14.530Z,100.00
2023-02-23T19:40:19.439Z,100.00
2023-02-23T19:45:25.885Z,100.00
2023-02-23T19:50:27.792Z,100.00
2023-02-23T19:55:29.687Z,100.00
2023-02-23T20:00:32.774Z,100.00
2023-02-23T20:05:42.367Z,100.00
2023-02-23T20:10:45.238Z,100.00
2023-02-23T20:15:48.240Z,100.00
2023-02-23T20:20:49.956Z,98.97
2023-02-23T20:25:51.696Z,98.49
2023-02-23T20:30:54.776Z,96.35
2023-02-23T20:35:56.693Z,92.85
2023-02-23T20:40:58.717Z,92.25
2023-02-23T20:46:02.730Z,93.68
2023-02-23T20:51:08.380Z,93.76
2023-02-23T20:56:10.215Z,94.36
2023-02-23T21:01:23.114Z,95.99
2023-02-23T21:06:25.969Z,96.09
2023-02-23T21:11:27.722Z,96.28
2023-02-23T21:16:32.389Z,95.58
2023-02-23T21:21:38.179Z,96.24
2023-02-23T21:26:39.907Z,96.72
2023-02-23T21:31:43.342Z,96.93
2023-02-23T21:36:45.116Z,97.53
2023-02-23T21:41:46.817Z,97.40
2023-02-23T21:46:51.516Z,97.26
2023-02-23T21:51:55.069Z,96.66
2023-02-23T21:56:56.826Z,96.61
2023-02-23T22:01:59.962Z,96.44
2023-02-23T22:07:02.207Z,97.28
2023-02-23T22:12:04.631Z,96.72
2023-02-23T22:17:09.662Z,95.03
2023-02-23T22:22:11.537Z,94.71
2023-02-23T22:27:13.869Z,95.75
2023-02-23T22:32:17.707Z,95.43
2023-02-23T22:37:21.850Z,95.95
2023-02-23T22:42:24.450Z,95.59
2023-02-23T22:47:27.534Z,95.23
2023-02-23T22:52:30.028Z,95.07
2023-02-23T22:57:31.774Z,95.08
2023-02-23T23:02:36.197Z,94.69
2023-02-23T23:07:37.947Z,95.56
2023-02-23T23:12:40.325Z,94.86
2023-02-23T23:17:48.487Z,94.07
2023-02-23T23:22:50.305Z,93.29
2023-02-23T23:27:52.482Z,93.54
2023-02-23T23:32:55.770Z,93.12
2023-02-23T23:37:57.575Z,93.17
2023-02-23T23:43:01.945Z,93.13
2023-02-23T23:48:09.406Z,92.84
2023-02-23T23:53:11.161Z,93.04
2023-02-23T23:58:13.930Z,93.33
